createdAt,value
2022-12-23T00:02:30.331Z,2.43
2022-12-23T00:05:02.832Z,2.45
2022-12-23T00:07:35.353Z,2.46
2022-12-23T00:10:09.317Z,2.47
2022-12-23T00:13:09.317Z,2.47
2022-12-23T00:15:41.853Z,2.45
2022-12-23T00:18:15.185Z,2.47
2022-12-23T00:20:47.813Z,2.48
2022-12-23T00:23:20.225Z,2.47
2022-12-23T00:25:52.685Z,2.48
2022-12-23T00:28:27.636Z,2.48
2022-12-23T00:31:02.028Z,2.44
2022-12-23T00:33:36.350Z,2.44
2022-12-23T00:36:14.060Z,2.46
2022-12-23T00:39:05.183Z,2.45
2022-12-23T00:41:56.447Z,2.45
2022-12-23T00:44:30.692Z,2.45
2022-12-23T00:47:03.209Z,2.43
2022-12-23T00:49:45.072Z,2.39
2022-12-23T00:52:17.728Z,2.41
2022-12-23T00:54:50.113Z,2.41
2022-12-23T00:57:22.672Z,2.41
2022-12-23T00:59:56.419Z,2.42
2022-12-23T01:02:47.751Z,2.44
2022-12-23T01:05:38.631Z,2.42
2022-12-23T01:08:12.283Z,2.45
2022-12-23T01:10:44.714Z,2.41
2022-12-23T01:13:17.579Z,2.46
2022-12-23T01:15:51.326Z,2.42
2022-12-23T01:18:23.780Z,2.47
2022-12-23T01:20:56.421Z,2.47
2022-12-23T01:23:29.060Z,2.47
2022-12-23T01:26:03.201Z,2.47
2022-12-23T01:28:36.711Z,2.48
2022-12-23T01:31:11.298Z,2.49
2022-12-23T01:33:43.935Z,2.51
2022-12-23T01:36:16.301Z,2.47
2022-12-23T01:38:48.911Z,2.52
2022-12-23T01:41:43.078Z,2.47
2022-12-23T01:44:55.990Z,2.51
2022-12-23T01:47:36.044Z,2.49
2022-12-23T01:50:11.634Z,2.51
2022-12-23T01:52:48.022Z,2.52
2022-12-23T01:55:25.377Z,2.47
2022-12-23T01:58:05.907Z,2.51
2022-12-23T02:00:58.177Z,2.51
2022-12-23T02:03:44.069Z,2.53
2022-12-23T02:06:39.763Z,2.53
2022-12-23T02:09:19.265Z,2.53
2022-12-23T02:12:31.909Z,2.54
2022-12-23T02:15:32.413Z,2.52
2022-12-23T02:18:18.875Z,2.49
2022-12-23T02:21:17.253Z,2.51
2022-12-23T02:24:43.135Z,2.51
2022-12-23T02:27:28.919Z,2.50
2022-12-23T02:30:37.129Z,2.48
2022-12-23T02:33:43.950Z,2.49
2022-12-23T02:36:26.026Z,2.43
2022-12-23T02:39:06.348Z,2.48
2022-12-23T02:41:44.073Z,2.45
2022-12-23T02:44:27.902Z,2.48
2022-12-23T02:47:08.987Z,2.47
2022-12-23T02:49:47.771Z,2.47
2022-12-23T02:52:24.315Z,2.44
2022-12-23T02:55:00.342Z,2.48
2022-12-23T02:57:36.792Z,2.48
2022-12-23T03:00:10.957Z,2.49
2022-12-23T03:02:45.585Z,2.53
2022-12-23T03:05:26.286Z,2.53
2022-12-23T03:08:03.997Z,2.49
2022-12-23T03:10:46.406Z,2.50
2022-12-23T03:13:31.180Z,2.50
2022-12-23T03:16:14.814Z,2.51
2022-12-23T03:19:05.739Z,2.52
2022-12-23T03:21:42.761Z,2.51
2022-12-23T03:24:24.874Z,2.53
2022-12-23T03:27:05.827Z,2.54
2022-12-23T03:29:46.122Z,2.55
2022-12-23T03:32:20.456Z,2.55
2022-12-23T03:34:58.569Z,2.56
2022-12-23T03:37:33.887Z,2.57
2022-12-23T03:40:12.147Z,2.57
2022-12-23T03:42:50.445Z,2.57
2022-12-23T03:45:42.412Z,2.58
2022-12-23T03:48:20.345Z,2.54
2022-12-23T03:50:58.847Z,2.60
2022-12-23T03:53:35.495Z,2.57
2022-12-23T03:56:12.437Z,2.57
2022-12-23T03:58:52.241Z,2.53
2022-12-23T04:01:32.194Z,2.52
2022-12-23T04:04:09.431Z,2.49
2022-12-23T04:06:52.207Z,2.55
2022-12-23T04:09:28.534Z,2.56
2022-12-23T04:12:01.391Z,2.58
2022-12-23T04:14:35.755Z,2.56
2022-12-23T04:17:08.289Z,2.58
2022-12-23T04:19:40.944Z,2.58
2022-12-23T04:22:16.137Z,2.59
2022-12-23T04:24:48.925Z,2.57
2022-12-23T04:27:21.446Z,2.57
2022-12-23T04:29:53.919Z,2.54
2022-12-23T04:32:27.020Z,2.57
2022-12-23T04:34:59.684Z,2.54
2022-12-23T04:37:34.490Z,2.57
2022-12-23T04:40:07.961Z,2.59
2022-12-23T04:42:40.525Z,2.56
2022-12-23T04:45:13.132Z,2.60
2022-12-23T04:47:45.643Z,2.59
2022-12-23T04:50:18.317Z,2.59
2022-12-23T04:52:52.251Z,2.59
2022-12-23T04:55:24.723Z,2.59
2022-12-23T04:57:57.171Z,2.56
2022-12-23T05:00:33.995Z,2.59
2022-12-23T05:03:09.918Z,2.59
2022-12-23T05:05:43.962Z,2.60
2022-12-23T05:08:17.854Z,2.61
2022-12-23T05:10:50.285Z,2.62
2022-12-23T05:13:22.998Z,2.60
2022-12-23T05:15:55.753Z,2.62
2022-12-23T05:18:28.238Z,2.60
2022-12-23T05:21:00.667Z,2.60
2022-12-23T05:23:34.608Z,2.62
2022-12-23T05:26:07.227Z,2.62
2022-12-23T05:28:39.713Z,2.62
2022-12-23T05:31:12.814Z,2.62
2022-12-23T05:33:45.465Z,2.61
2022-12-23T05:36:18.053Z,2.60
2022-12-23T05:38:51.886Z,2.60
2022-12-23T05:41:24.362Z,2.61
2022-12-23T05:43:57.187Z,2.56
2022-12-23T05:46:29.849Z,2.59
2022-12-23T05:49:02.495Z,2.63
2022-12-23T05:51:34.871Z,2.62
2022-12-23T05:54:08.849Z,2.63
2022-12-23T05:56:41.339Z,2.56
2022-12-23T05:59:13.772Z,2.62
2022-12-23T06:01:46.336Z,2.61
2022-12-23T06:04:19.024Z,2.57
2022-12-23T06:06:51.603Z,2.62
2022-12-23T06:09:25.596Z,2.60
2022-12-23T06:11:58.155Z,2.57
2022-12-23T06:14:30.709Z,2.63
2022-12-23T06:17:03.501Z,2.65
2022-12-23T06:19:35.951Z,2.64
2022-12-23T06:22:08.321Z,2.65
2022-12-23T06:24:43.625Z,2.66
2022-12-23T06:27:16.163Z,2.59
2022-12-23T06:29:48.759Z,2.67
2022-12-23T06:32:23.758Z,2.68
2022-12-23T06:34:56.242Z,2.64
2022-12-23T06:37:28.905Z,2.68
2022-12-23T06:40:02.784Z,2.69
2022-12-23T06:42:36.891Z,2.72
2022-12-23T06:45:10.651Z,2.72
2022-12-23T06:47:43.143Z,2.72
2022-12-23T06:50:15.870Z,2.68
2022-12-23T06:52:49.219Z,2.74
2022-12-23T06:55:23.116Z,2.75
2022-12-23T06:57:55.623Z,2.72
2022-12-23T07:00:28.027Z,2.78
2022-12-23T07:03:00.674Z,2.78
2022-12-23T07:05:37.280Z,2.80
2022-12-23T07:08:10.119Z,2.82
2022-12-23T07:10:44.065Z,2.83
2022-12-23T07:13:17.311Z,2.69
2022-12-23T07:15:50.112Z,2.81
2022-12-23T07:18:23.099Z,2.68
2022-12-23T07:21:00.370Z,2.80
2022-12-23T07:23:33.191Z,2.80
2022-12-23T07:26:07.644Z,2.82
2022-12-23T07:28:47.971Z,2.83
2022-12-23T07:31:20.645Z,2.80
2022-12-23T07:33:53.239Z,2.85
2022-12-23T07:36:26.133Z,2.83
2022-12-23T07:38:58.772Z,2.86
2022-12-23T07:41:32.932Z,2.90
2022-12-23T07:44:11.827Z,2.89
2022-12-23T07:46:44.795Z,2.91
2022-12-23T07:49:18.185Z,2.92
2022-12-23T07:51:50.902Z,2.93
2022-12-23T07:54:23.335Z,2.94
2022-12-23T07:56:58.429Z,2.95
2022-12-23T07:59:31.307Z,2.94
2022-12-23T08:02:04.101Z,2.88
2022-12-23T08:04:40.964Z,2.92
2022-12-23T08:07:16.772Z,2.93
2022-12-23T08:09:49.364Z,2.96
2022-12-23T08:12:23.215Z,2.89
2022-12-23T08:14:55.704Z,2.97
2022-12-23T08:17:29.277Z,2.99
2022-12-23T08:20:02.435Z,3.00
2022-12-23T08:22:36.194Z,2.94
2022-12-23T08:25:09.448Z,2.98
2022-12-23T08:27:43.587Z,3.02
2022-12-23T08:30:16.530Z,3.01
2022-12-23T08:32:48.923Z,3.05
2022-12-23T08:35:21.337Z,3.07
2022-12-23T08:37:54.000Z,3.07
2022-12-23T08:40:29.143Z,3.08
2022-12-23T08:43:03.425Z,3.02
2022-12-23T08:45:38.473Z,3.10
2022-12-23T08:48:11.107Z,3.10
2022-12-23T08:50:45.771Z,3.13
2022-12-23T08:53:18.275Z,3.12
2022-12-23T08:55:50.651Z,3.12
2022-12-23T08:58:24.675Z,3.12
2022-12-23T09:00:57.390Z,3.14
2022-12-23T09:03:30.246Z,3.14
2022-12-23T09:06:05.936Z,3.14
2022-12-23T09:08:40.398Z,3.14
2022-12-23T09:11:14.302Z,3.14
2022-12-23T09:13:48.825Z,3.09
2022-12-23T09:16:21.905Z,3.13
2022-12-23T09:18:55.264Z,3.13
2022-12-23T09:21:29.624Z,3.12
2022-12-23T09:24:02.156Z,3.15
2022-12-23T09:26:34.664Z,3.16
2022-12-23T09:29:11.194Z,3.16
2022-12-23T09:31:43.741Z,3.17
2022-12-23T09:34:18.250Z,3.17
2022-12-23T09:36:55.236Z,3.17
2022-12-23T09:39:28.193Z,3.17
2022-12-23T09:42:07.647Z,3.11
2022-12-23T09:44:56.900Z,3.16
2022-12-23T09:47:31.782Z,3.17
2022-12-23T09:50:13.040Z,3.12
2022-12-23T09:52:54.549Z,3.12
2022-12-23T09:55:36.206Z,3.18
2022-12-23T09:58:19.404Z,3.18
2022-12-23T10:01:06.344Z,3.06
2022-12-23T10:03:57.715Z,3.14
2022-12-23T10:06:32.158Z,3.12
2022-12-23T10:09:07.386Z,3.11
2022-12-23T10:11:43.119Z,3.11
2022-12-23T10:14:43.773Z,3.10
2022-12-23T10:17:26.158Z,3.13
2022-12-23T10:20:02.525Z,3.13
2022-12-23T10:22:42.118Z,3.11
2022-12-23T10:25:18.460Z,3.14
2022-12-23T10:27:50.914Z,3.15
2022-12-23T10:30:54.021Z,3.12
2022-12-23T10:33:22.925Z,3.14
2022-12-23T10:36:05.397Z,3.05
2022-12-23T10:38:54.388Z,3.11
2022-12-23T10:41:38.325Z,3.15
2022-12-23T10:44:34.762Z,3.15
2022-12-23T10:47:20.320Z,3.15
2022-12-23T10:50:09.311Z,3.15
2022-12-23T10:52:45.502Z,3.11
2022-12-23T10:55:32.908Z,3.15
2022-12-23T10:58:09.108Z,3.16
2022-12-23T11:00:45.745Z,3.07
2022-12-23T11:03:23.589Z,3.05
2022-12-23T11:05:58.969Z,3.09
2022-12-23T11:08:32.463Z,3.15
2022-12-23T11:11:06.294Z,3.11
2022-12-23T11:13:40.793Z,3.16
2022-12-23T11:16:21.901Z,3.13
2022-12-23T11:18:57.538Z,3.07
2022-12-23T11:21:33.522Z,3.12
2022-12-23T11:24:16.517Z,3.11
2022-12-23T11:26:52.027Z,3.11
2022-12-23T11:29:32.149Z,3.09
2022-12-23T11:32:16.765Z,3.11
2022-12-23T11:34:50.313Z,2.99
2022-12-23T11:37:35.443Z,3.06
2022-12-23T11:40:27.203Z,3.13
2022-12-23T11:43:02.356Z,3.13
2022-12-23T11:45:37.003Z,3.11
2022-12-23T11:48:27.737Z,3.15
2022-12-23T11:51:02.115Z,3.12
2022-12-23T11:53:36.910Z,3.12
2022-12-23T11:56:12.702Z,3.11
2022-12-23T11:58:48.540Z,3.09
2022-12-23T12:01:24.313Z,3.12
2022-12-23T12:04:01.190Z,3.14
2022-12-23T12:06:34.323Z,3.14
2022-12-23T12:09:12.280Z,3.08
2022-12-23T12:11:48.535Z,3.11
2022-12-23T12:14:27.574Z,3.17
2022-12-23T12:17:14.430Z,3.15
2022-12-23T12:19:59.369Z,3.14
2022-12-23T12:22:38.974Z,3.15
2022-12-23T12:25:26.389Z,3.13
2022-12-23T12:28:03.123Z,3.17
2022-12-23T12:30:40.299Z,3.17
2022-12-23T12:33:18.704Z,3.14
2022-12-23T12:36:07.436Z,3.12
2022-12-23T12:38:40.533Z,3.13
2022-12-23T12:41:19.625Z,3.06
2022-12-23T12:44:00.790Z,3.12
2022-12-23T12:46:39.282Z,3.11
2022-12-23T12:49:20.535Z,3.11
2022-12-23T12:51:58.441Z,3.09
2022-12-23T12:54:35.667Z,3.02
2022-12-23T12:57:15.342Z,3.07
2022-12-23T12:59:50.528Z,3.07
2022-12-23T13:02:44.138Z,3.08
2022-12-23T13:05:32.650Z,3.03
2022-12-23T13:08:22.824Z,2.92
2022-12-23T13:11:02.714Z,2.96
2022-12-23T13:13:48.219Z,3.01
2022-12-23T13:16:33.954Z,3.05
2022-12-23T13:19:14.671Z,3.04
2022-12-23T13:21:51.890Z,3.04
2022-12-23T13:24:31.919Z,3.04
2022-12-23T13:27:11.383Z,3.04
2022-12-23T13:29:58.051Z,3.05
2022-12-23T13:33:18.411Z,3.06
2022-12-23T13:36:09.439Z,3.03
2022-12-23T13:38:54.567Z,3.02
2022-12-23T13:41:32.879Z,3.06
2022-12-23T13:44:08.549Z,2.97
2022-12-23T13:46:51.774Z,3.06
2022-12-23T13:49:35.009Z,3.06
2022-12-23T13:52:11.766Z,3.04
2022-12-23T13:54:56.586Z,3.06
2022-12-23T13:57:44.154Z,3.05
2022-12-23T14:00:28.761Z,3.04
2022-12-23T14:03:18.777Z,3.02
2022-12-23T14:05:52.886Z,3.04
2022-12-23T14:08:40.736Z,2.89
2022-12-23T14:11:19.527Z,3.05
2022-12-23T14:13:56.054Z,3.08
2022-12-23T14:16:53.741Z,3.09
2022-12-23T14:19:46.044Z,3.09
2022-12-23T14:22:35.826Z,3.04
2022-12-23T14:25:32.441Z,3.12
2022-12-23T14:28:21.121Z,3.07
2022-12-23T14:30:53.853Z,3.11
2022-12-23T14:33:29.268Z,3.12
2022-12-23T14:36:23.308Z,3.13
2022-12-23T14:39:32.255Z,3.14
2022-12-23T14:42:07.573Z,3.14
2022-12-23T14:44:46.495Z,3.15
2022-12-23T14:47:34.333Z,3.17
2022-12-23T14:50:38.653Z,3.19
2022-12-23T14:53:24.357Z,3.20
2022-12-23T14:56:23.529Z,3.22
2022-12-23T14:59:08.966Z,3.22
2022-12-23T15:01:43.391Z,3.26
2022-12-23T15:04:19.662Z,3.24
2022-12-23T15:06:55.340Z,3.25
2022-12-23T15:09:32.067Z,3.22
2022-12-23T15:12:12.426Z,3.25
2022-12-23T15:14:48.743Z,3.26
2022-12-23T15:17:27.729Z,3.28
2022-12-23T15:20:13.493Z,3.23
2022-12-23T15:22:47.946Z,3.26
2022-12-23T15:25:25.743Z,3.29
2022-12-23T15:28:02.102Z,3.25
2022-12-23T15:30:46.255Z,3.27
2022-12-23T15:34:00.921Z,3.27
2022-12-23T15:36:15.744Z,3.31
2022-12-23T15:38:48.262Z,3.32
2022-12-23T15:41:22.866Z,3.28
2022-12-23T15:44:01.929Z,3.33
2022-12-23T15:46:39.212Z,3.33
2022-12-23T15:49:12.811Z,3.34
2022-12-23T15:54:45.733Z,3.35
2022-12-23T15:57:23.340Z,3.35
2022-12-23T15:59:57.252Z,3.32
2022-12-23T16:05:30.122Z,3.36
2022-12-23T16:08:11.376Z,3.37
2022-12-23T16:10:56.691Z,3.36
2022-12-23T16:13:30.698Z,3.38
2022-12-23T16:16:20.857Z,3.39
2022-12-23T16:18:53.545Z,3.38
2022-12-23T16:21:30.254Z,3.36
2022-12-23T16:24:11.817Z,3.34
2022-12-23T16:26:46.891Z,3.34
2022-12-23T16:29:21.717Z,3.36
2022-12-23T16:32:01.477Z,3.39
2022-12-23T16:34:34.574Z,3.39
2022-12-23T16:37:08.143Z,3.40
2022-12-23T16:39:41.475Z,3.41
2022-12-23T16:42:14.304Z,3.40
2022-12-23T16:44:51.425Z,3.31
2022-12-23T16:47:23.918Z,3.41
2022-12-23T16:49:56.747Z,3.39
2022-12-23T16:52:29.488Z,3.40
2022-12-23T16:55:01.928Z,3.38
2022-12-23T16:57:35.207Z,3.42
2022-12-23T17:00:14.446Z,3.39
2022-12-23T17:02:48.637Z,3.40
2022-12-23T17:05:22.591Z,3.41
2022-12-23T17:07:55.032Z,3.29
2022-12-23T17:10:27.886Z,3.40
2022-12-23T17:13:00.438Z,3.40
2022-12-23T17:15:34.278Z,3.40
2022-12-23T17:18:12.085Z,3.40
2022-12-23T17:20:46.209Z,3.39
2022-12-23T17:23:27.371Z,3.36
2022-12-23T17:25:59.993Z,3.41
2022-12-23T17:28:33.197Z,3.39
2022-12-23T17:31:14.229Z,3.39
2022-12-23T17:33:48.017Z,3.37
2022-12-23T17:36:20.677Z,3.42
2022-12-23T17:38:53.140Z,3.32
2022-12-23T17:41:28.912Z,3.39
2022-12-23T17:44:01.658Z,3.37
2022-12-23T17:46:35.849Z,3.41
2022-12-23T17:49:09.726Z,3.30
2022-12-23T17:51:42.754Z,3.43
2022-12-23T17:54:23.158Z,3.44
2022-12-23T17:56:55.771Z,3.44
2022-12-23T17:59:28.200Z,3.46
2022-12-23T18:02:03.385Z,3.46
2022-12-23T18:04:35.907Z,3.42
2022-12-23T18:07:12.219Z,3.44
2022-12-23T18:09:44.882Z,3.42
2022-12-23T18:12:30.721Z,3.45
2022-12-23T18:15:04.677Z,3.44
2022-12-23T18:17:38.574Z,3.38
2022-12-23T18:20:15.212Z,3.43
2022-12-23T18:22:49.061Z,3.46
2022-12-23T18:25:24.008Z,3.45
2022-12-23T18:27:56.452Z,3.45
2022-12-23T18:30:28.841Z,3.45
2022-12-23T18:33:02.808Z,3.41
2022-12-23T18:35:39.716Z,3.40
2022-12-23T18:38:13.014Z,3.46
2022-12-23T18:40:45.796Z,3.48
2022-12-23T18:43:20.957Z,3.46
2022-12-23T18:45:54.203Z,3.46
2022-12-23T18:48:28.417Z,3.46
2022-12-23T18:51:00.975Z,3.37
2022-12-23T18:53:33.601Z,3.47
2022-12-23T18:56:06.396Z,3.47
2022-12-23T18:58:38.970Z,3.47
2022-12-23T19:01:12.600Z,3.45
2022-12-23T19:03:47.207Z,3.45
2022-12-23T19:06:20.156Z,3.45
2022-12-23T19:08:52.556Z,3.44
2022-12-23T19:11:25.027Z,3.41
2022-12-23T19:13:57.707Z,3.42
2022-12-23T19:16:30.403Z,3.42
2022-12-23T19:19:04.283Z,3.42
2022-12-23T19:21:36.886Z,3.38
2022-12-23T19:24:09.449Z,3.40
2022-12-23T19:26:42.053Z,3.42
2022-12-23T19:29:14.500Z,3.45
2022-12-23T19:31:50.385Z,3.42
2022-12-23T19:34:24.694Z,3.19
2022-12-23T19:36:57.219Z,3.45
2022-12-23T19:39:29.752Z,3.45
2022-12-23T19:42:02.243Z,3.44
2022-12-23T19:44:35.385Z,3.43
2022-12-23T19:47:08.038Z,3.39
2022-12-23T19:49:41.962Z,3.43
2022-12-23T19:52:14.623Z,3.45
2022-12-23T19:54:48.611Z,3.46
2022-12-23T19:57:21.577Z,3.37
2022-12-23T19:59:54.032Z,3.45
2022-12-23T20:02:26.648Z,3.40
2022-12-23T20:05:00.592Z,3.44
2022-12-23T20:07:35.408Z,3.40
2022-12-23T20:10:09.047Z,3.39
2022-12-23T20:12:41.567Z,3.44
2022-12-23T20:15:14.199Z,3.44
2022-12-23T20:17:48.438Z,3.42
2022-12-23T20:20:22.310Z,3.43
2022-12-23T20:22:54.822Z,3.34
2022-12-23T20:25:27.431Z,3.40
2022-12-23T20:27:59.960Z,3.41
2022-12-23T20:30:32.401Z,3.41
2022-12-23T20:33:04.902Z,3.41
2022-12-23T20:35:39.473Z,3.39
2022-12-23T20:38:12.011Z,3.41
2022-12-23T20:40:45.344Z,3.42
2022-12-23T20:43:17.884Z,3.40
2022-12-23T20:45:51.547Z,3.41
2022-12-23T20:48:28.228Z,3.41
2022-12-23T20:51:06.761Z,3.40
2022-12-23T20:53:39.487Z,3.39
2022-12-23T20:56:17.284Z,3.36
2022-12-23T20:58:55.718Z,3.39
2022-12-23T21:01:30.319Z,3.37
2022-12-23T21:04:04.944Z,3.35
2022-12-23T21:06:39.554Z,3.37
2022-12-23T21:09:13.763Z,3.40
2022-12-23T21:11:47.258Z,3.39
2022-12-23T21:14:19.721Z,3.40
2022-12-23T21:16:52.316Z,3.38
2022-12-23T21:19:26.256Z,3.39
2022-12-23T21:22:00.295Z,3.36
2022-12-23T21:24:32.743Z,3.41
2022-12-23T21:27:08.452Z,3.37
2022-12-23T21:29:43.481Z,3.41
2022-12-23T21:32:21.491Z,3.40
2022-12-23T21:34:54.184Z,3.41
2022-12-23T21:37:28.387Z,3.38
2022-12-23T21:40:01.226Z,3.36
2022-12-23T21:42:34.156Z,3.32
2022-12-23T21:45:07.840Z,3.39
2022-12-23T21:47:40.729Z,3.41
2022-12-23T21:50:14.535Z,3.41
2022-12-23T21:52:48.413Z,3.40
2022-12-23T21:55:20.840Z,3.40
2022-12-23T21:57:53.409Z,3.41
2022-12-23T22:00:26.072Z,3.42
2022-12-23T22:02:58.668Z,3.41
2022-12-23T22:05:31.032Z,3.41
2022-12-23T22:08:07.252Z,3.37
2022-12-23T22:10:40.029Z,3.39
2022-12-23T22:13:12.626Z,3.39
2022-12-23T22:15:45.396Z,3.39
2022-12-23T22:18:17.933Z,3.40
2022-12-23T22:20:50.422Z,3.41
2022-12-23T22:23:24.570Z,3.41
2022-12-23T22:25:57.193Z,3.40
2022-12-23T22:28:32.199Z,3.41
2022-12-23T22:31:07.150Z,3.39
2022-12-23T22:33:39.659Z,3.37
2022-12-23T22:36:13.440Z,3.35
2022-12-23T22:38:52.649Z,3.38
2022-12-23T22:41:28.053Z,3.37
2022-12-23T22:44:00.889Z,3.38
2022-12-23T22:46:33.696Z,3.37
2022-12-23T22:49:06.405Z,3.39
2022-12-23T22:51:40.573Z,3.36
2022-12-23T22:54:14.554Z,3.38
2022-12-23T22:56:47.081Z,3.37
2022-12-23T22:59:21.746Z,3.36
2022-12-23T23:01:54.586Z,3.37
2022-12-23T23:04:27.050Z,3.35
2022-12-23T23:06:59.481Z,3.37
2022-12-23T23:09:33.398Z,3.38
2022-12-23T23:12:06.190Z,3.37
2022-12-23T23:14:53.861Z,3.36
2022-12-23T23:17:27.444Z,3.36
2022-12-23T23:20:00.152Z,3.34
2022-12-23T23:22:32.692Z,3.37
2022-12-23T23:25:07.729Z,3.35
2022-12-23T23:27:40.232Z,3.34
2022-12-23T23:30:13.163Z,3.31
2022-12-23T23:32:45.797Z,3.33
2022-12-23T23:35:18.363Z,3.31
2022-12-23T23:37:50.877Z,3.32
2022-12-23T23:40:24.840Z,3.30
2022-12-23T23:42:57.410Z,3.34
2022-12-23T23:45:30.397Z,3.35
2022-12-23T23:48:02.848Z,3.34
2022-12-23T23:50:35.376Z,3.24
2022-12-23T23:53:08.772Z,3.33
2022-12-23T23:55:42.877Z,3.30
2022-12-23T23:58:15.277Z,3.35
